Time;durP1;ratioP1;P1;durP2;ratioP2;P2;SDS_P1;SDS_P2;PMS_P1;PMS_P2;Temp;Humidity;BMP_temperature;BMP_pressure;BME280_temperature;BME280_humidity;BME280_pressure;Samples;Min_cycle;Max_cycle;Signal;HPM_P1;HPM_P2
2022/05/25 00:02:39;;;;;;;;;;;;;;;;;;5095900;28;19916;-75
2022/05/25 00:05:25;;;;;;;;;;;;;;;;;;5094357;28;19908;-76
2022/05/25 00:08:13;;;;;;;;;;;;;;;;;;5109733;28;19911;-77
2022/05/25 00:10:59;;;;;;;;;;;;;;;;;;5102632;28;20359;-75
2022/05/25 00:13:46;;;;;;;;;;;;;;;;;;5101825;28;19919;-76
2022/05/25 00:16:32;;;;;;;;;;;;;;;;;;5108203;27;20379;-76
2022/05/25 00:22:24;;;;;;;;;;;;;;;;;;5094430;28;19924;-75
2022/05/25 00:25:10;;;;;;;;;;;;;;;;;;5082806;28;20388;-76
2022/05/25 00:27:57;;;;;;;;;;;;;;;;;;5093625;28;20406;-76
2022/05/25 00:30:44;;;;;;;;;;;;;;;;;;5090835;28;20465;-76
2022/05/25 00:33:30;;;;;;;;;;;;;;;;;;5100278;28;20283;-76
2022/05/25 00:36:17;;;;;;;;;;;;;;;;;;5110151;28;19916;-75
2022/05/25 00:39:04;;;;;;;;;;;;;;;;;;5090192;28;19924;-76
2022/05/25 00:41:50;;;;;;;;;;;;;;;;;;5094849;28;20283;-75
2022/05/25 00:44:37;;;;;;;;;;;;;;;;;;5089699;28;20363;-75
2022/05/25 00:47:23;;;;;;;;;;;;;;;;;;5105267;28;19908;-74
2022/05/25 00:50:09;;;;;;;;;;;;;;;;;;5094789;28;19923;-75
2022/05/25 00:52:56;;;;;;;;;;;;;;;;;;5092673;28;19915;-76
2022/05/25 00:55:42;;;;;;;;;;;;;;;;;;5090730;28;19947;-76
2022/05/25 00:58:29;;;;;;;;;;;;;;;;;;5077920;28;20275;-76
2022/05/25 01:01:15;;;;;;;;;;;;;;;;;;5091065;28;20485;-77
2022/05/25 01:04:02;;;;;;;;;;;;;;;;;;5091256;28;19919;-76
2022/05/25 01:06:48;;;;;;;;;;;;;;;;;;5091472;28;19912;-77
2022/05/25 01:09:35;;;;;;;;;;;;;;;;;;5091649;28;19926;-77
2022/05/25 01:12:21;;;;;;;;;;;;;;;;;;5095143;28;20287;-76
2022/05/25 01:15:08;;;;;;;;;;;;;;;;;;5091660;28;19912;-76
2022/05/25 01:17:54;;;;;;;;;;;;;;;;;;5084795;28;19912;-76
2022/05/25 01:20:41;;;;;;;;;;;;;;;;;;5088595;28;20394;-75
2022/05/25 01:23:27;;;;;;;;;;;;;;;;;;5103044;28;19908;-76
2022/05/25 01:26:14;;;;;;;;;;;;;;;;;;5091158;28;19918;-76
2022/05/25 01:29:00;;;;;;;;;;;;;;;;;;5094611;28;20010;-76
2022/05/25 01:31:47;;;;;;;;;;;;;;;;;;5090356;28;19920;-76
2022/05/25 01:34:33;;;;;;;;;;;;;;;;;;5088120;28;19908;-76
2022/05/25 01:37:20;;;;;;;;;;;;;;;;;;5085753;28;19922;-75
2022/05/25 01:40:06;;;;;;;;;;;;;;;;;;5085001;28;19926;-75
2022/05/25 01:42:53;;;;;;;;;;;;;;;;;;5079183;28;19908;-76
2022/05/25 01:45:40;;;;;;;;;;;;;;;;;;5089300;28;19908;-75
2022/05/25 01:48:26;;;;;;;;;;;;;;;;;;5099894;28;19908;-75
2022/05/25 01:51:13;;;;;;;;;;;;;;;;;;5089186;28;19913;-76
2022/05/25 01:54:00;;;;;;;;;;;;;;;;;;5091964;28;20411;-76
2022/05/25 01:56:46;;;;;;;;;;;;;;;;;;5086532;28;19914;-75
2022/05/25 01:59:32;;;;;;;;;;;;;;;;;;5073287;28;19937;-76
2022/05/25 02:05:24;;;;;;;;;;;;;;;;;;5093039;28;19918;-76
2022/05/25 02:08:10;;;;;;;;;;;;;;;;;;5090567;28;19908;-76
2022/05/25 02:10:57;;;;;;;;;;;;;;;;;;5089248;28;19930;-76
2022/05/25 02:13:43;;;;;;;;;;;;;;;;;;5088649;28;19915;-76
2022/05/25 02:16:32;;;;;;;;;;;;;;;;;;5098341;28;19916;-76
2022/05/25 02:19:19;;;;;;;;;;;;;;;;;;5104427;27;20013;-76
2022/05/25 02:22:05;;;;;;;;;;;;;;;;;;5092875;28;19931;-76
2022/05/25 02:24:52;;;;;;;;;;;;;;;;;;5079533;28;19908;-77
2022/05/25 02:27:39;;;;;;;;;;;;;;;;;;5091450;28;20291;-77
2022/05/25 02:30:25;;;;;;;;;;;;;;;;;;5090101;28;19909;-78
2022/05/25 02:33:13;;;;;;;;;;;;;;;;;;5092006;28;19931;-77
2022/05/25 02:36:00;;;;;;;;;;;;;;;;;;5097212;28;19926;-77
2022/05/25 02:38:46;;;;;;;;;;;;;;;;;;5096719;28;19915;-76
2022/05/25 02:41:33;;;;;;;;;;;;;;;;;;5090412;28;19928;-77
2022/05/25 02:44:19;;;;;;;;;;;;;;;;;;5094840;28;20295;-77
2022/05/25 02:47:06;;;;;;;;;;;;;;;;;;5096524;28;19918;-76
2022/05/25 02:49:52;;;;;;;;;;;;;;;;;;5089528;28;19912;-77
2022/05/25 02:52:39;;;;;;;;;;;;;;;;;;5084368;28;19919;-76
2022/05/25 02:55:25;;;;;;;;;;;;;;;;;;5085662;28;19912;-76
2022/05/25 02:58:11;;;;;;;;;;;;;;;;;;5082773;28;20376;-75
2022/05/25 03:00:58;;;;;;;;;;;;;;;;;;5083998;28;19924;-75
2022/05/25 03:03:44;;;;;;;;;;;;;;;;;;5087582;28;20533;-75
2022/05/25 03:06:31;;;;;;;;;;;;;;;;;;5087920;28;19917;-75
2022/05/25 03:09:17;;;;;;;;;;;;;;;;;;5092161;28;20283;-77
2022/05/25 03:12:04;;;;;;;;;;;;;;;;;;5092217;28;19943;-78
2022/05/25 03:14:50;;;;;;;;;;;;;;;;;;5088304;28;19911;-78
2022/05/25 03:17:37;;;;;;;;;;;;;;;;;;5088838;28;19920;-78
2022/05/25 03:20:26;;;;;;;;;;;;;;;;;;5073155;28;19920;-78
2022/05/25 03:23:17;;;;;;;;;;;;;;;;;;5086179;28;20319;-78
2022/05/25 03:26:22;;;;;;;;;;;;;;;;;;5085178;28;20367;-77
2022/05/25 03:29:13;;;;;;;;;;;;;;;;;;5085083;28;19924;-79
2022/05/25 03:32:06;;;;;;;;;;;;;;;;;;5073028;28;20407;-79
2022/05/25 03:34:53;;;;;;;;;;;;;;;;;;5063614;28;19913;-78
2022/05/25 03:37:43;;;;;;;;;;;;;;;;;;5061957;28;19916;-79
2022/05/25 03:40:46;;;;;;;;;;;;;;;;;;5062621;28;19920;-81
2022/05/25 03:43:35;;;;;;;;;;;;;;;;;;5062464;28;20542;-79
2022/05/25 03:46:22;;;;;;;;;;;;;;;;;;5051836;28;19936;-77
2022/05/25 03:49:12;;;;;;;;;;;;;;;;;;5053104;28;19924;-77
2022/05/25 03:52:08;;;;;;;;;;;;;;;;;;5074456;28;19923;-78
2022/05/25 03:54:54;;;;;;;;;;;;;;;;;;5060346;28;19923;-78
2022/05/25 04:00:48;;;;;;;;;;;;;;;;;;5059494;28;19927;-77
2022/05/25 04:03:42;;;;;;;;;;;;;;;;;;5066150;28;19917;-78
2022/05/25 04:06:29;;;;;;;;;;;;;;;;;;5060416;28;19921;-76
2022/05/25 04:09:18;;;;;;;;;;;;;;;;;;5059028;28;19920;-77
2022/05/25 04:12:08;;;;;;;;;;;;;;;;;;5066034;28;19927;-78
2022/05/25 04:14:54;;;;;;;;;;;;;;;;;;5059750;28;19917;-76
2022/05/25 04:18:10;;;;;;;;;;;;;;;;;;5060519;28;19920;-76
2022/05/25 04:20:55;;;;;;;;;;;;;;;;;;5072183;28;19920;-77
2022/05/25 04:23:49;;;;;;;;;;;;;;;;;;5069900;28;20275;-77
2022/05/25 04:26:35;;;;;;;;;;;;;;;;;;5063540;28;19912;-78
2022/05/25 04:29:22;;;;;;;;;;;;;;;;;;5069696;28;20286;-76
2022/05/25 04:32:08;;;;;;;;;;;;;;;;;;5071099;28;19931;-75
2022/05/25 04:34:57;;;;;;;;;;;;;;;;;;5063280;28;19919;-76
2022/05/25 04:37:49;;;;;;;;;;;;;;;;;;5071341;28;19935;-76
2022/05/25 04:40:36;;;;;;;;;;;;;;;;;;5080600;28;19916;-76
2022/05/25 04:43:22;;;;;;;;;;;;;;;;;;5059954;28;20360;-76
2022/05/25 04:46:08;;;;;;;;;;;;;;;;;;5072448;28;19923;-76
2022/05/25 04:48:55;;;;;;;;;;;;;;;;;;5070674;28;19915;-76
2022/05/25 04:51:46;;;;;;;;;;;;;;;;;;5069271;28;19919;-76
2022/05/25 04:54:32;;;;;;;;;;;;;;;;;;5071109;28;19919;-76
2022/05/25 04:57:23;;;;;;;;;;;;;;;;;;5054007;28;19921;-76
2022/05/25 05:00:09;;;;;;;;;;;;;;;;;;5072515;28;19923;-76
2022/05/25 05:02:56;;;;;;;;;;;;;;;;;;5087045;28;19912;-77
2022/05/25 05:05:42;;;;;;;;;;;;;;;;;;5083645;28;20367;-77
2022/05/25 05:08:29;;;;;;;;;;;;;;;;;;5070013;28;19917;-76
2022/05/25 05:11:16;;;;;;;;;;;;;;;;;;5085691;28;19919;-75
2022/05/25 05:14:02;;;;;;;;;;;;;;;;;;5062084;28;19915;-76
2022/05/25 05:16:51;;;;;;;;;;;;;;;;;;5069468;28;19921;-77
2022/05/25 05:19:37;;;;;;;;;;;;;;;;;;5076967;28;19913;-76
2022/05/25 05:22:24;;;;;;;;;;;;;;;;;;5083003;28;19920;-76
2022/05/25 05:25:10;;;;;;;;;;;;;;;;;;5075421;28;19951;-76
2022/05/25 05:27:57;;;;;;;;;;;;;;;;;;5071124;28;19915;-78
2022/05/25 05:30:43;;;;;;;;;;;;;;;;;;5068985;28;19923;-75
2022/05/25 05:36:41;;;;;;;;;;;;;;;;;;5037140;28;19924;-76
2022/05/25 05:39:28;;;;;;;;;;;;;;;;;;5037502;28;20466;-75
2022/05/25 05:42:14;;;;;;;;;;;;;;;;;;5035517;28;19937;-76
2022/05/25 05:45:01;;;;;;;;;;;;;;;;;;5041127;28;19916;-77
2022/05/25 05:47:49;;;;;;;;;;;;;;;;;;5039287;28;19916;-76
2022/05/25 05:50:38;;;;;;;;;;;;;;;;;;5038693;28;19923;-76
2022/05/25 05:53:24;;;;;;;;;;;;;;;;;;5045444;28;20395;-75
2022/05/25 05:56:11;;;;;;;;;;;;;;;;;;5042227;28;19915;-73
2022/05/25 05:58:57;;;;;;;;;;;;;;;;;;5053783;28;19920;-76
2022/05/25 06:01:45;;;;;;;;;;;;;;;;;;5033228;28;19921;-78
2022/05/25 06:04:31;;;;;;;;;;;;;;;;;;5033777;28;20340;-76
2022/05/25 06:07:18;;;;;;;;;;;;;;;;;;5047895;28;19913;-75
2022/05/25 06:10:04;;;;;;;;;;;;;;;;;;5041872;28;19920;-75
2022/05/25 06:12:51;;;;;;;;;;;;;;;;;;5048078;28;19909;-75
2022/05/25 06:21:48;;;;;;;;;;;;;;;;;;5033500;28;19921;-76
2022/05/25 06:24:34;;;;;;;;;;;;;;;;;;5039044;28;20427;-76
2022/05/25 06:27:21;;;;;;;;;;;;;;;;;;5026482;28;19915;-76
2022/05/25 06:30:07;;;;;;;;;;;;;;;;;;5047357;28;19916;-76
2022/05/25 06:32:54;;;;;;;;;;;;;;;;;;5041183;28;19948;-77
2022/05/25 06:35:41;;;;;;;;;;;;;;;;;;5045552;28;20349;-77
2022/05/25 06:38:27;;;;;;;;;;;;;;;;;;5031301;28;20281;-75
2022/05/25 06:41:14;;;;;;;;;;;;;;;;;;5039057;28;19967;-76
2022/05/25 06:44:00;;;;;;;;;;;;;;;;;;5035976;28;20284;-77
2022/05/25 06:46:47;;;;;;;;;;;;;;;;;;5036460;28;19909;-75
2022/05/25 06:49:34;;;;;;;;;;;;;;;;;;5043649;28;19909;-76
2022/05/25 06:52:23;;;;;;;;;;;;;;;;;;5042568;28;19912;-76
2022/05/25 06:55:09;;;;;;;;;;;;;;;;;;5031108;28;20289;-76
2022/05/25 06:57:56;;;;;;;;;;;;;;;;;;5045410;28;19909;-76
2022/05/25 07:00:43;;;;;;;;;;;;;;;;;;5037215;28;19943;-76
2022/05/25 07:03:29;;;;;;;;;;;;;;;;;;5045650;28;19928;-76
2022/05/25 07:06:16;;;;;;;;;;;;;;;;;;5048584;28;19928;-76
2022/05/25 07:09:02;;;;;;;;;;;;;;;;;;5038679;28;19909;-76
2022/05/25 07:11:49;;;;;;;;;;;;;;;;;;5036354;28;19909;-76
2022/05/25 07:14:35;;;;;;;;;;;;;;;;;;5045881;28;19909;-76
2022/05/25 07:17:22;;;;;;;;;;;;;;;;;;5033566;28;20358;-77
2022/05/25 07:20:09;;;;;;;;;;;;;;;;;;5045440;28;19912;-76
2022/05/25 07:22:56;;;;;;;;;;;;;;;;;;5039584;28;19921;-77
2022/05/25 07:25:42;;;;;;;;;;;;;;;;;;5040874;28;19913;-77
2022/05/25 07:28:29;;;;;;;;;;;;;;;;;;5047959;28;19928;-78
2022/05/25 07:31:15;;;;;;;;;;;;;;;;;;5040890;28;19927;-75
2022/05/25 07:34:02;;;;;;;;;;;;;;;;;;5039246;28;20258;-77
2022/05/25 07:36:48;;;;;;;;;;;;;;;;;;5045340;28;19919;-77
2022/05/25 07:39:35;;;;;;;;;;;;;;;;;;5044093;28;19922;-77
2022/05/25 07:42:21;;;;;;;;;;;;;;;;;;5033611;28;20577;-77
2022/05/25 07:45:08;;;;;;;;;;;;;;;;;;5054108;28;19917;-77
2022/05/25 07:47:54;;;;;;;;;;;;;;;;;;5046124;28;19917;-77
2022/05/25 07:50:41;;;;;;;;;;;;;;;;;;5037094;28;19917;-77
2022/05/25 07:56:46;;;;;;;;;;;;;;;;;;5010422;28;19915;-76
2022/05/25 07:59:33;;;;;;;;;;;;;;;;;;5046127;28;19943;-76
2022/05/25 08:08:30;;;;;;;;;;;;;;;;;;5057608;28;19935;-77
2022/05/25 08:11:16;;;;;;;;;;;;;;;;;;5050880;28;20281;-77
2022/05/25 08:14:02;;;;;;;;;;;;;;;;;;5048794;28;19909;-77
2022/05/25 08:16:49;;;;;;;;;;;;;;;;;;5050374;28;19953;-76
2022/05/25 08:19:38;;;;;;;;;;;;;;;;;;5056431;28;20379;-76
2022/05/25 08:22:25;;;;;;;;;;;;;;;;;;5040582;28;19921;-77
2022/05/25 08:25:12;;;;;;;;;;;;;;;;;;5038311;28;19920;-76
2022/05/25 08:27:58;;;;;;;;;;;;;;;;;;5037380;28;19920;-77
2022/05/25 08:30:45;;;;;;;;;;;;;;;;;;5045168;28;20385;-76
2022/05/25 08:33:31;;;;;;;;;;;;;;;;;;5046780;28;19913;-77
2022/05/25 08:36:18;;;;;;;;;;;;;;;;;;5040249;28;19920;-75
2022/05/25 08:39:05;;;;;;;;;;;;;;;;;;5052153;28;19917;-76
2022/05/25 08:41:51;;;;;;;;;;;;;;;;;;5042985;28;20416;-76
2022/05/25 08:44:38;;;;;;;;;;;;;;;;;;5051292;28;19909;-76
2022/05/25 08:47:24;;;;;;;;;;;;;;;;;;5053569;28;20380;-77
2022/05/25 08:50:10;;;;;;;;;;;;;;;;;;5043971;28;19913;-76
2022/05/25 08:52:57;;;;;;;;;;;;;;;;;;5049708;28;20303;-77
2022/05/25 08:55:43;;;;;;;;;;;;;;;;;;5052335;28;19916;-77
2022/05/25 08:58:30;;;;;;;;;;;;;;;;;;5040729;28;19923;-77
2022/05/25 09:01:16;;;;;;;;;;;;;;;;;;5052521;28;19935;-77
2022/05/25 09:04:03;;;;;;;;;;;;;;;;;;5053024;28;19913;-76
2022/05/25 09:06:52;;;;;;;;;;;;;;;;;;5053740;28;20284;-76
2022/05/25 09:09:38;;;;;;;;;;;;;;;;;;5050242;28;19913;-77
2022/05/25 09:12:25;;;;;;;;;;;;;;;;;;5056028;28;19923;-76
2022/05/25 09:15:11;;;;;;;;;;;;;;;;;;5064299;28;20391;-76
2022/05/25 09:17:58;;;;;;;;;;;;;;;;;;5057622;28;19917;-76
2022/05/25 09:20:44;;;;;;;;;;;;;;;;;;5039566;28;19913;-77
2022/05/25 09:23:31;;;;;;;;;;;;;;;;;;5052062;28;19924;-77
2022/05/25 09:26:17;;;;;;;;;;;;;;;;;;5034811;28;19920;-77
2022/05/25 09:29:04;;;;;;;;;;;;;;;;;;5063638;28;19913;-76
2022/05/25 09:31:50;;;;;;;;;;;;;;;;;;5068861;28;19932;-75
2022/05/25 09:34:37;;;;;;;;;;;;;;;;;;5074959;28;19920;-76
2022/05/25 09:37:25;;;;;;;;;;;;;;;;;;5090882;28;20292;-76
2022/05/25 09:40:12;;;;;;;;;;;;;;;;;;5043375;28;20288;-75
2022/05/25 09:42:58;;;;;;;;;;;;;;;;;;5069390;28;19935;-76
2022/05/25 09:45:45;;;;;;;;;;;;;;;;;;5071884;28;20374;-76
2022/05/25 09:48:31;;;;;;;;;;;;;;;;;;5072058;28;19919;-76
2022/05/25 09:51:18;;;;;;;;;;;;;;;;;;5071114;28;19920;-76
2022/05/25 09:54:04;;;;;;;;;;;;;;;;;;5080468;28;19935;-76
2022/05/25 09:56:51;;;;;;;;;;;;;;;;;;5069039;28;19953;-75
2022/05/25 09:59:37;;;;;;;;;;;;;;;;;;5083140;28;19909;-77
2022/05/25 10:02:24;;;;;;;;;;;;;;;;;;5070681;28;19916;-77
2022/05/25 10:05:10;;;;;;;;;;;;;;;;;;5070279;28;19916;-77
2022/05/25 10:08:00;;;;;;;;;;;;;;;;;;5067590;28;19935;-77
2022/05/25 10:10:50;;;;;;;;;;;;;;;;;;5079070;28;19915;-77
2022/05/25 10:13:36;;;;;;;;;;;;;;;;;;5070605;28;20277;-77
2022/05/25 10:16:23;;;;;;;;;;;;;;;;;;5071133;28;19908;-77
2022/05/25 10:19:11;;;;;;;;;;;;;;;;;;5074934;28;19924;-77
2022/05/25 10:22:00;;;;;;;;;;;;;;;;;;5070449;28;19924;-75
2022/05/25 10:24:47;;;;;;;;;;;;;;;;;;5069811;28;19915;-77
2022/05/25 10:27:33;;;;;;;;;;;;;;;;;;5067834;28;19916;-76
2022/05/25 10:36:47;;;;;;;;;;;;;;;;;;5060163;28;19915;-77
2022/05/25 10:39:34;;;;;;;;;;;;;;;;;;5058771;28;19908;-77
2022/05/25 10:42:23;;;;;;;;;;;;;;;;;;5062956;28;19927;-77
2022/05/25 10:45:09;;;;;;;;;;;;;;;;;;5059112;28;19909;-77
2022/05/25 10:47:57;;;;;;;;;;;;;;;;;;5067948;28;19919;-77
2022/05/25 10:50:43;;;;;;;;;;;;;;;;;;5065425;28;19912;-76
2022/05/25 10:53:30;;;;;;;;;;;;;;;;;;5069331;28;19915;-77
2022/05/25 10:56:16;;;;;;;;;;;;;;;;;;5070329;28;19995;-76
2022/05/25 10:59:03;;;;;;;;;;;;;;;;;;5091432;28;19914;-76
2022/05/25 11:01:49;;;;;;;;;;;;;;;;;;5068049;28;19924;-76
2022/05/25 11:04:36;;;;;;;;;;;;;;;;;;5071960;28;19915;-75
2022/05/25 11:07:22;;;;;;;;;;;;;;;;;;5057005;28;19920;-76
2022/05/25 11:10:09;;;;;;;;;;;;;;;;;;5069270;28;19908;-76
2022/05/25 11:12:55;;;;;;;;;;;;;;;;;;5079437;28;19916;-77
2022/05/25 11:15:42;;;;;;;;;;;;;;;;;;5064690;28;20382;-77
2022/05/25 11:18:29;;;;;;;;;;;;;;;;;;5066237;28;19913;-76
2022/05/25 11:21:17;;;;;;;;;;;;;;;;;;5067100;28;19917;-76
2022/05/25 11:24:03;;;;;;;;;;;;;;;;;;5069310;28;19919;-76
2022/05/25 11:26:50;;;;;;;;;;;;;;;;;;5069063;28;19908;-76
2022/05/25 11:29:36;;;;;;;;;;;;;;;;;;5078193;28;19909;-76
2022/05/25 11:32:23;;;;;;;;;;;;;;;;;;5070008;28;20396;-77
2022/05/25 11:35:11;;;;;;;;;;;;;;;;;;5060683;28;20265;-76
2022/05/25 11:37:58;;;;;;;;;;;;;;;;;;5064520;28;19916;-76
2022/05/25 11:40:44;;;;;;;;;;;;;;;;;;5071856;28;19912;-76
2022/05/25 11:43:31;;;;;;;;;;;;;;;;;;5074148;28;20469;-76
2022/05/25 11:46:17;;;;;;;;;;;;;;;;;;5067035;28;19912;-76
2022/05/25 11:49:03;;;;;;;;;;;;;;;;;;5069210;28;19915;-76
2022/05/25 11:51:50;;;;;;;;;;;;;;;;;;5075446;28;20291;-76
2022/05/25 11:54:38;;;;;;;;;;;;;;;;;;5071561;28;20387;-76
2022/05/25 11:57:24;;;;;;;;;;;;;;;;;;5066483;28;20279;-76
2022/05/25 12:00:11;;;;;;;;;;;;;;;;;;5074736;28;20319;-75
2022/05/25 12:02:57;;;;;;;;;;;;;;;;;;5064991;28;19932;-76
2022/05/25 12:05:44;;;;;;;;;;;;;;;;;;5053053;28;20486;-77
2022/05/25 12:08:33;;;;;;;;;;;;;;;;;;5066788;28;19908;-77
2022/05/25 12:11:20;;;;;;;;;;;;;;;;;;5058395;28;19919;-75
2022/05/25 12:14:06;;;;;;;;;;;;;;;;;;5049433;28;19912;-76
2022/05/25 12:16:53;;;;;;;;;;;;;;;;;;5068695;28;20561;-76
2022/05/25 12:19:42;;;;;;;;;;;;;;;;;;5064733;28;19916;-76
2022/05/25 12:22:28;;;;;;;;;;;;;;;;;;5066930;28;19916;-76
2022/05/25 12:25:15;;;;;;;;;;;;;;;;;;5074311;28;19912;-76
2022/05/25 12:28:01;;;;;;;;;;;;;;;;;;5076419;28;20303;-77
2022/05/25 12:30:48;;;;;;;;;;;;;;;;;;5056680;28;19930;-76
2022/05/25 12:33:34;;;;;;;;;;;;;;;;;;5068641;28;19924;-77
2022/05/25 12:36:21;;;;;;;;;;;;;;;;;;5070282;28;19912;-76
2022/05/25 12:39:07;;;;;;;;;;;;;;;;;;5079137;28;19934;-77
2022/05/25 12:41:54;;;;;;;;;;;;;;;;;;5062272;28;19920;-76
2022/05/25 12:50:51;;;;;;;;;;;;;;;;;;5069039;28;19912;-77
2022/05/25 12:53:38;;;;;;;;;;;;;;;;;;5070539;28;19917;-77
2022/05/25 12:56:24;;;;;;;;;;;;;;;;;;5069803;28;19915;-75
2022/05/25 12:59:11;;;;;;;;;;;;;;;;;;5062682;28;20343;-75
2022/05/25 13:01:57;;;;;;;;;;;;;;;;;;5074984;28;20398;-76
2022/05/25 13:04:44;;;;;;;;;;;;;;;;;;5069950;28;19913;-76
2022/05/25 13:07:30;;;;;;;;;;;;;;;;;;5068500;28;20412;-75
2022/05/25 13:10:17;;;;;;;;;;;;;;;;;;5070355;28;19923;-75
2022/05/25 13:13:05;;;;;;;;;;;;;;;;;;5060289;28;19913;-74
2022/05/25 13:15:51;;;;;;;;;;;;;;;;;;5065212;28;20435;-74
2022/05/25 13:18:38;;;;;;;;;;;;;;;;;;5068351;28;20382;-75
2022/05/25 13:21:24;;;;;;;;;;;;;;;;;;5064112;28;19995;-75
2022/05/25 13:24:12;;;;;;;;;;;;;;;;;;5071215;28;19920;-74
2022/05/25 13:26:59;;;;;;;;;;;;;;;;;;5068019;28;20571;-73
2022/05/25 13:29:45;;;;;;;;;;;;;;;;;;5059629;28;19923;-73
2022/05/25 13:32:32;;;;;;;;;;;;;;;;;;5067921;28;19928;-74
2022/05/25 13:35:18;;;;;;;;;;;;;;;;;;5072577;28;19916;-74
2022/05/25 13:38:05;;;;;;;;;;;;;;;;;;5069301;28;19917;-74
2022/05/25 13:40:52;;;;;;;;;;;;;;;;;;5068267;28;20369;-74
2022/05/25 13:43:38;;;;;;;;;;;;;;;;;;5060089;28;19920;-75
2022/05/25 13:46:25;;;;;;;;;;;;;;;;;;5067941;28;19926;-74
2022/05/25 13:49:11;;;;;;;;;;;;;;;;;;5065737;28;19912;-74
2022/05/25 13:51:58;;;;;;;;;;;;;;;;;;5069955;28;20300;-75
2022/05/25 13:54:45;;;;;;;;;;;;;;;;;;5068561;28;19912;-75
2022/05/25 13:57:32;;;;;;;;;;;;;;;;;;5062515;28;19920;-74
2022/05/25 14:00:20;;;;;;;;;;;;;;;;;;5074752;28;19912;-74
2022/05/25 14:03:06;;;;;;;;;;;;;;;;;;5065463;28;20399;-74
2022/05/25 14:05:53;;;;;;;;;;;;;;;;;;5066545;28;19909;-74
2022/05/25 14:11:45;;;;;;;;;;;;;;;;;;5060446;28;19912;-74
2022/05/25 14:14:33;;;;;;;;;;;;;;;;;;5079178;28;19913;-73
2022/05/25 14:17:21;;;;;;;;;;;;;;;;;;5058755;28;19913;-73
2022/05/25 14:20:07;;;;;;;;;;;;;;;;;;5069227;28;20367;-74
2022/05/25 14:22:54;;;;;;;;;;;;;;;;;;5069074;28;19934;-74
2022/05/25 14:25:40;;;;;;;;;;;;;;;;;;5063305;28;19923;-73
2022/05/25 14:28:27;;;;;;;;;;;;;;;;;;5076769;28;19920;-75
2022/05/25 14:31:13;;;;;;;;;;;;;;;;;;5068237;28;20562;-75
2022/05/25 14:34:00;;;;;;;;;;;;;;;;;;5068226;28;19913;-74
2022/05/25 14:36:46;;;;;;;;;;;;;;;;;;5066487;28;19920;-74
2022/05/25 14:39:33;;;;;;;;;;;;;;;;;;5066940;28;20461;-74
2022/05/25 14:42:21;;;;;;;;;;;;;;;;;;5063086;28;20305;-73
2022/05/25 14:45:07;;;;;;;;;;;;;;;;;;5067627;28;19912;-75
2022/05/25 14:47:55;;;;;;;;;;;;;;;;;;5072507;28;20299;-75
2022/05/25 14:50:42;;;;;;;;;;;;;;;;;;5067569;28;19923;-76
2022/05/25 14:53:28;;;;;;;;;;;;;;;;;;5066482;28;19923;-74
2022/05/25 14:56:15;;;;;;;;;;;;;;;;;;5067562;28;19921;-74
2022/05/25 14:59:01;;;;;;;;;;;;;;;;;;5068716;28;19917;-75
2022/05/25 15:01:48;;;;;;;;;;;;;;;;;;5066141;28;19959;-77
2022/05/25 15:04:34;;;;;;;;;;;;;;;;;;5063559;28;20623;-78
2022/05/25 15:07:21;;;;;;;;;;;;;;;;;;5066825;28;20353;-77
2022/05/25 15:10:07;;;;;;;;;;;;;;;;;;5068690;28;19913;-77
2022/05/25 15:12:54;;;;;;;;;;;;;;;;;;5068311;28;20630;-78
2022/05/25 15:18:46;;;;;;;;;;;;;;;;;;5060505;28;20453;-80
2022/05/25 15:21:34;;;;;;;;;;;;;;;;;;5068680;28;19927;-81
2022/05/25 15:24:21;;;;;;;;;;;;;;;;;;5062477;28;19919;-78
2022/05/25 15:27:09;;;;;;;;;;;;;;;;;;5068824;28;19912;-80
2022/05/25 15:29:55;;;;;;;;;;;;;;;;;;5066066;28;19919;-81
2022/05/25 15:32:42;;;;;;;;;;;;;;;;;;5068868;28;19924;-79
2022/05/25 15:35:28;;;;;;;;;;;;;;;;;;5063069;28;19915;-83
2022/05/25 15:38:17;;;;;;;;;;;;;;;;;;5059170;28;19930;-84
2022/05/25 15:41:03;;;;;;;;;;;;;;;;;;5059509;28;19920;-79
2022/05/25 15:43:53;;;;;;;;;;;;;;;;;;5063673;28;19924;-80
2022/05/25 15:46:42;;;;;;;;;;;;;;;;;;5065829;28;19909;-80
2022/05/25 15:49:28;;;;;;;;;;;;;;;;;;5068535;28;19920;-83
2022/05/25 15:52:15;;;;;;;;;;;;;;;;;;5068662;28;19916;-81
2022/05/25 15:55:01;;;;;;;;;;;;;;;;;;5066692;28;19919;-81
2022/05/25 15:57:48;;;;;;;;;;;;;;;;;;5061548;28;19913;-81
2022/05/25 16:00:34;;;;;;;;;;;;;;;;;;5063071;28;19927;-80
2022/05/25 16:03:21;;;;;;;;;;;;;;;;;;5067132;28;20410;-79
2022/05/25 16:06:07;;;;;;;;;;;;;;;;;;5068360;28;19931;-78
2022/05/25 16:09:13;;;;;;;;;;;;;;;;;;5062099;28;19909;-78
2022/05/25 16:12:00;;;;;;;;;;;;;;;;;;5062893;28;19913;-79
2022/05/25 16:14:51;;;;;;;;;;;;;;;;;;5065144;28;19923;-79
2022/05/25 16:17:38;;;;;;;;;;;;;;;;;;5061662;28;20382;-79
2022/05/25 16:20:25;;;;;;;;;;;;;;;;;;5068989;28;20444;-81
2022/05/25 16:23:11;;;;;;;;;;;;;;;;;;5073193;28;20309;-79
2022/05/25 16:25:58;;;;;;;;;;;;;;;;;;5069856;28;19909;-80
2022/05/25 16:28:48;;;;;;;;;;;;;;;;;;5067400;28;19919;-79
2022/05/25 16:31:35;;;;;;;;;;;;;;;;;;5074730;28;19931;-78
2022/05/25 16:34:23;;;;;;;;;;;;;;;;;;5068113;28;19924;-78
2022/05/25 16:37:09;;;;;;;;;;;;;;;;;;5082950;28;19916;-79
2022/05/25 16:39:56;;;;;;;;;;;;;;;;;;5071530;28;19923;-82
2022/05/25 16:42:42;;;;;;;;;;;;;;;;;;5070604;28;19929;-77
2022/05/25 16:45:29;;;;;;;;;;;;;;;;;;5074867;28;19913;-80
2022/05/25 16:48:15;;;;;;;;;;;;;;;;;;5071291;28;19921;-84
2022/05/25 16:51:02;;;;;;;;;;;;;;;;;;5070269;28;19923;-78
2022/05/25 16:53:48;;;;;;;;;;;;;;;;;;5069390;28;19917;-77
2022/05/25 16:56:35;;;;;;;;;;;;;;;;;;5070614;28;19916;-79
2022/05/25 16:59:22;;;;;;;;;;;;;;;;;;5068230;28;19983;-77
2022/05/25 17:02:09;;;;;;;;;;;;;;;;;;5061242;28;19962;-79
2022/05/25 17:04:57;;;;;;;;;;;;;;;;;;5071353;28;19919;-79
2022/05/25 17:07:43;;;;;;;;;;;;;;;;;;5072448;28;19915;-79
2022/05/25 17:10:30;;;;;;;;;;;;;;;;;;5070987;28;19923;-79
2022/05/25 17:13:16;;;;;;;;;;;;;;;;;;5070842;28;19916;-79
2022/05/25 17:16:03;;;;;;;;;;;;;;;;;;5070157;28;19909;-79
2022/05/25 17:21:55;;;;;;;;;;;;;;;;;;5074215;28;19927;-79
2022/05/25 17:24:41;;;;;;;;;;;;;;;;;;5070009;28;19920;-79
2022/05/25 17:27:28;;;;;;;;;;;;;;;;;;5069706;28;19920;-79
2022/05/25 17:30:15;;;;;;;;;;;;;;;;;;5063164;28;19935;-79
2022/05/25 17:33:01;;;;;;;;;;;;;;;;;;5067598;28;19925;-79
2022/05/25 17:41:58;;;;;;;;;;;;;;;;;;5070509;28;19917;-79
2022/05/25 17:44:44;;;;;;;;;;;;;;;;;;5082044;28;20387;-80
2022/05/25 17:47:31;;;;;;;;;;;;;;;;;;5088086;28;19909;-80
2022/05/25 17:50:17;;;;;;;;;;;;;;;;;;5066081;28;19963;-80
2022/05/25 17:53:04;;;;;;;;;;;;;;;;;;5060350;28;19917;-80
2022/05/25 17:55:50;;;;;;;;;;;;;;;;;;5070602;28;19908;-80
2022/05/25 17:58:38;;;;;;;;;;;;;;;;;;5070992;28;19913;-79
2022/05/25 18:01:25;;;;;;;;;;;;;;;;;;5072065;28;19921;-80
2022/05/25 18:04:11;;;;;;;;;;;;;;;;;;5069524;28;19932;-79
2022/05/25 18:06:58;;;;;;;;;;;;;;;;;;5074172;28;19908;-79
2022/05/25 18:09:44;;;;;;;;;;;;;;;;;;5080229;28;20026;-79
2022/05/25 18:12:31;;;;;;;;;;;;;;;;;;5063286;28;20007;-80
2022/05/25 18:15:17;;;;;;;;;;;;;;;;;;5067021;28;19943;-79
2022/05/25 18:18:03;;;;;;;;;;;;;;;;;;5039507;28;19912;-79
2022/05/25 18:20:50;;;;;;;;;;;;;;;;;;5068290;28;19913;-80
2022/05/25 18:23:37;;;;;;;;;;;;;;;;;;5069031;28;19946;-79
2022/05/25 18:26:23;;;;;;;;;;;;;;;;;;5059513;28;19912;-79
2022/05/25 18:29:10;;;;;;;;;;;;;;;;;;5068824;28;20406;-80
2022/05/25 18:31:56;;;;;;;;;;;;;;;;;;5062621;28;19924;-80
2022/05/25 18:34:43;;;;;;;;;;;;;;;;;;5065208;28;20292;-80
2022/05/25 18:37:29;;;;;;;;;;;;;;;;;;5061808;28;20348;-79
2022/05/25 18:40:16;;;;;;;;;;;;;;;;;;5061961;28;19912;-79
2022/05/25 18:43:02;;;;;;;;;;;;;;;;;;5066377;28;19927;-79
2022/05/25 18:45:49;;;;;;;;;;;;;;;;;;5068418;28;19916;-79
2022/05/25 18:48:36;;;;;;;;;;;;;;;;;;5069850;28;19916;-79
2022/05/25 18:51:22;;;;;;;;;;;;;;;;;;5060379;28;19913;-80
2022/05/25 18:54:09;;;;;;;;;;;;;;;;;;5059443;28;19915;-79
2022/05/25 18:56:56;;;;;;;;;;;;;;;;;;5066176;28;19916;-79
2022/05/25 18:59:42;;;;;;;;;;;;;;;;;;5070299;28;19923;-80
2022/05/25 19:02:29;;;;;;;;;;;;;;;;;;5061863;28;19930;-80
2022/05/25 19:05:15;;;;;;;;;;;;;;;;;;5078183;28;19912;-79
2022/05/25 19:08:02;;;;;;;;;;;;;;;;;;5079498;28;19917;-80
2022/05/25 19:10:49;;;;;;;;;;;;;;;;;;5065127;28;20291;-79
2022/05/25 19:13:36;;;;;;;;;;;;;;;;;;5069268;28;19908;-80
2022/05/25 19:16:22;;;;;;;;;;;;;;;;;;5066537;28;19916;-79
2022/05/25 19:19:09;;;;;;;;;;;;;;;;;;5064658;28;19923;-78
2022/05/25 19:21:55;;;;;;;;;;;;;;;;;;5068407;28;19962;-78
2022/05/25 19:24:42;;;;;;;;;;;;;;;;;;5068757;28;19927;-78
2022/05/25 19:27:30;;;;;;;;;;;;;;;;;;5067130;28;19919;-79
2022/05/25 19:30:18;;;;;;;;;;;;;;;;;;5061175;28;19936;-79
2022/05/25 19:33:06;;;;;;;;;;;;;;;;;;5069554;28;19917;-79
2022/05/25 19:35:53;;;;;;;;;;;;;;;;;;5065112;28;19913;-79
2022/05/25 19:38:39;;;;;;;;;;;;;;;;;;5071029;28;19913;-80
2022/05/25 19:41:26;;;;;;;;;;;;;;;;;;5067445;28;19908;-79
2022/05/25 19:44:14;;;;;;;;;;;;;;;;;;5066858;28;20619;-80
2022/05/25 19:47:01;;;;;;;;;;;;;;;;;;5069267;28;19919;-78
2022/05/25 19:52:52;;;;;;;;;;;;;;;;;;5067697;28;19924;-79
2022/05/25 19:55:39;;;;;;;;;;;;;;;;;;5065136;28;19915;-80
2022/05/25 19:58:25;;;;;;;;;;;;;;;;;;5068276;28;19920;-79
2022/05/25 20:01:12;;;;;;;;;;;;;;;;;;5065105;28;19916;-79